Impacts TAF Board
For situational awareness. Not to be used for flight planning purposes.
IDs:

KYKM - Yakima Air Term/McAl, WA, US

Issued at 1120 UTC 07 Jul 2020
Updated at 1344 UTC 07 Jul 2020
Potential Impact None Slight Moderate High
Time1253Z 07/14Z 07/15Z 07/16Z 07/17Z 07/18Z 07/19Z 07/20Z 07/21Z 07/22Z 07/23Z 08/00Z 08/01Z 08/02Z>>
Type OBS PRVL PRVL PRVL PRVL PRVL PRVL PRVL PRVL PRVL PRVL PRVL PRVL PRVL
VIS 10 >6 >6 >6 >6 >6 >6 >6 >6 >6 >6 >6 >6 >6
CIG -- -- -- -- -- -- -- -- -- -- -- -- -- --
Cover CLR FEW FEW FEW FEW FEW FEW FEW FEW FEW FEW FEW FEW FEW
FltCat VFR VFR VFR VFR VFR VFR VFR VFR VFR VFR VFR VFR VFR VFR
WX -- -- -- -- -- -- -- -- -- -- -- -- -- --
WDir 340 320 320 320 320 300 300 300 300 300 300 300 300 300
WSpd 12 8 8 8 8 12 12 12 12 12 12 12 12 12
WGst 18 -- -- -- -- 20 20 20 20 20 20 20 20 20
Raw TAF
KYKM 071120Z 0712/0812 32008KT P6SM FEW250
  FM071800 30012G20KT P6SM FEW250
  FM080600 32008KT P6SM FEW250


Raw METAR
KYKM 071253Z 34012G18KT 10SM CLR 16/05 A2991 RMK AO2 SLP123 T01560050
KYKM 071153Z AUTO 00000KT 10SM CLR 13/06 A2990 RMK AO2 SLP119 T01330056 10194 20128 53011
KYKM 071053Z AUTO 33005KT 10SM CLR 16/06 A2989 RMK AO2 SLP116 T01560056

METAR Board
Radar Display
Forecast Discussion
For situational awareness. Not to be used for flight planning purposes.